createdAt,value
2018-03-23T00:01:00.737Z,19.03
2018-03-23T00:03:27.025Z,19.83
2018-03-23T00:05:53.524Z,21.67
2018-03-23T00:08:19.824Z,19.93
2018-03-23T00:10:46.257Z,18.57
2018-03-23T00:13:12.528Z,20.60
2018-03-23T00:15:38.906Z,19.83
2018-03-23T00:18:05.206Z,21.63
2018-03-23T00:20:31.730Z,22.80
2018-03-23T00:22:58.240Z,20.63
2018-03-23T00:25:24.580Z,23.33
2018-03-23T00:27:51.224Z,19.43
2018-03-23T00:30:17.542Z,25.47
2018-03-23T00:32:43.937Z,21.37
2018-03-23T00:35:10.214Z,20.87
2018-03-23T00:37:36.566Z,22.40
2018-03-23T00:40:03.252Z,22.17
2018-03-23T00:42:29.562Z,19.80
2018-03-23T00:44:56.340Z,19.97
2018-03-23T00:47:22.684Z,22.27
2018-03-23T00:49:49.032Z,21.63
2018-03-23T00:52:15.378Z,26.43
2018-03-23T00:54:41.650Z,22.47
2018-03-23T00:57:07.948Z,22.07
2018-03-23T00:59:34.310Z,20.63
2018-03-23T01:02:00.550Z,20.87
2018-03-23T01:04:26.872Z,20.93
2018-03-23T01:06:54.279Z,21.33
2018-03-23T01:09:20.545Z,20.30
2018-03-23T01:11:46.788Z,24.30
2018-03-23T01:14:13.072Z,22.83
2018-03-23T01:16:39.324Z,25.30
2018-03-23T01:19:05.574Z,22.20
2018-03-23T01:21:31.885Z,23.73
2018-03-23T01:23:58.360Z,19.47
2018-03-23T01:26:24.630Z,23.87
2018-03-23T01:28:50.928Z,22.47
2018-03-23T01:31:17.178Z,26.47
2018-03-23T01:33:43.410Z,25.37
2018-03-23T01:36:09.697Z,22.60
2018-03-23T01:38:35.941Z,21.80
2018-03-23T01:41:02.175Z,24.10
2018-03-23T01:43:28.478Z,25.03
2018-03-23T01:45:54.744Z,23.37
2018-03-23T01:48:21.054Z,20.97
2018-03-23T01:50:47.288Z,24.97
2018-03-23T01:53:25.728Z,24.23
2018-03-23T01:55:52.077Z,24.10
2018-03-23T01:58:18.341Z,23.77
2018-03-23T02:00:44.612Z,22.00
2018-03-23T02:03:10.881Z,21.77
2018-03-23T02:05:37.169Z,21.27
2018-03-23T02:08:03.483Z,23.43
2018-03-23T02:10:29.761Z,23.17
2018-03-23T02:12:56.008Z,24.17
2018-03-23T02:15:22.251Z,21.73
2018-03-23T02:17:48.555Z,21.53
2018-03-23T02:20:14.839Z,21.03
2018-03-23T02:22:41.096Z,24.43
2018-03-23T02:25:07.373Z,23.63
2018-03-23T02:27:33.623Z,25.90
2018-03-23T02:29:59.896Z,21.80
2018-03-23T02:32:26.164Z,24.10
2018-03-23T02:34:52.412Z,25.37
2018-03-23T02:37:18.661Z,23.33
2018-03-23T02:39:44.931Z,26.17
2018-03-23T02:42:11.165Z,27.00
2018-03-23T02:44:37.397Z,26.17
2018-03-23T02:47:03.682Z,25.20
2018-03-23T02:49:29.911Z,24.77
2018-03-23T02:51:56.160Z,24.50
2018-03-23T02:54:22.427Z,21.80
2018-03-23T02:56:48.666Z,26.73
2018-03-23T02:59:15.021Z,28.57
2018-03-23T03:01:41.312Z,22.50
2018-03-23T03:04:07.591Z,24.93
2018-03-23T03:06:33.828Z,26.43
2018-03-23T03:09:00.115Z,26.80
2018-03-23T03:11:26.339Z,27.17
2018-03-23T03:13:52.576Z,29.10
2018-03-23T03:16:18.838Z,26.77
2018-03-23T03:18:45.068Z,24.97
2018-03-23T03:21:11.327Z,27.37
2018-03-23T03:23:37.692Z,26.50
2018-03-23T03:26:03.952Z,24.30
2018-03-23T03:28:30.204Z,24.33
2018-03-23T03:30:56.478Z,22.90
2018-03-23T03:33:22.735Z,27.23
2018-03-23T03:35:49.000Z,25.63
2018-03-23T03:38:15.248Z,25.03
2018-03-23T03:40:41.496Z,25.10
2018-03-23T03:43:07.724Z,25.77
2018-03-23T03:45:34.024Z,21.47
2018-03-23T03:48:00.260Z,25.60
2018-03-23T03:50:26.507Z,23.07
2018-03-23T03:52:52.784Z,27.47
2018-03-23T03:55:19.027Z,26.50
2018-03-23T03:57:45.261Z,24.80
2018-03-23T04:00:11.524Z,26.37
2018-03-23T04:02:37.769Z,25.37
2018-03-23T04:05:04.139Z,30.10
2018-03-23T04:07:30.411Z,27.17
2018-03-23T04:09:56.652Z,24.53
2018-03-23T04:12:22.887Z,26.20
2018-03-23T04:14:49.151Z,26.47
2018-03-23T04:17:15.389Z,25.03
2018-03-23T04:19:41.661Z,29.00
2018-03-23T04:22:07.927Z,22.07
2018-03-23T04:24:34.167Z,30.03
2018-03-23T04:27:00.396Z,26.10
2018-03-23T04:29:27.500Z,30.90
2018-03-23T04:31:53.740Z,26.93
2018-03-23T04:34:19.987Z,28.37
2018-03-23T04:36:46.243Z,29.77
2018-03-23T04:39:12.491Z,27.80
2018-03-23T04:41:38.712Z,31.80
2018-03-23T04:44:04.967Z,26.80
2018-03-23T04:46:31.204Z,26.13
2018-03-23T04:48:57.437Z,29.23
2018-03-23T04:51:23.703Z,28.83
2018-03-23T04:53:49.947Z,30.03
2018-03-23T04:56:16.200Z,28.93
2018-03-23T04:58:42.564Z,26.37
2018-03-23T05:01:08.816Z,25.23
2018-03-23T05:03:35.055Z,27.07
2018-03-23T05:06:01.325Z,31.03
2018-03-23T05:08:27.557Z,27.73
2018-03-23T05:10:53.796Z,27.43
2018-03-23T05:13:20.150Z,28.10
2018-03-23T05:15:46.360Z,30.87
2018-03-23T05:18:12.611Z,31.30
2018-03-23T05:20:38.913Z,29.57
2018-03-23T05:23:05.140Z,31.07
2018-03-23T05:25:31.405Z,30.33
2018-03-23T05:27:57.685Z,28.90
2018-03-23T05:30:23.945Z,34.77
2018-03-23T05:32:50.184Z,37.50
2018-03-23T05:35:16.439Z,33.00
2018-03-23T05:37:42.668Z,36.97
2018-03-23T05:40:08.912Z,41.17
2018-03-23T05:42:35.176Z,35.77
2018-03-23T05:45:01.401Z,40.57
2018-03-23T05:47:27.725Z,36.40
2018-03-23T05:49:53.992Z,36.00
2018-03-23T05:52:20.224Z,46.20
2018-03-23T05:54:46.444Z,37.83
2018-03-23T05:57:12.721Z,48.10
2018-03-23T05:59:38.956Z,45.20
2018-03-23T06:02:05.211Z,39.90
2018-03-23T06:04:31.460Z,42.03
2018-03-23T06:06:57.697Z,41.27
2018-03-23T06:09:23.914Z,40.27
2018-03-23T06:11:50.176Z,43.43
2018-03-23T06:14:16.420Z,44.03
2018-03-23T06:16:42.695Z,40.60
2018-03-23T06:19:08.975Z,43.77
2018-03-23T06:21:35.212Z,45.00
2018-03-23T06:24:01.436Z,42.70
2018-03-23T06:26:27.723Z,44.37
2018-03-23T06:28:53.968Z,37.10
2018-03-23T06:31:20.244Z,46.53
2018-03-23T06:33:46.520Z,41.83
2018-03-23T06:36:12.749Z,39.37
2018-03-23T06:38:38.987Z,47.20
2018-03-23T06:41:05.267Z,41.47
2018-03-23T06:43:31.497Z,37.37
2018-03-23T06:45:57.723Z,35.27
2018-03-23T06:48:23.991Z,44.13
2018-03-23T06:50:50.296Z,42.90
2018-03-23T06:53:16.562Z,50.37
2018-03-23T06:55:42.824Z,50.40
2018-03-23T06:58:09.048Z,49.57
2018-03-23T07:00:35.284Z,43.27
2018-03-23T07:03:01.540Z,71.17
2018-03-23T07:05:27.788Z,77.90
2018-03-23T07:07:54.081Z,43.40
2018-03-23T07:10:20.356Z,41.93
2018-03-23T07:12:46.629Z,38.87
2018-03-23T07:15:12.868Z,44.90
2018-03-23T07:17:39.162Z,49.13
2018-03-23T07:20:05.419Z,40.47
2018-03-23T07:22:31.659Z,46.07
2018-03-23T07:24:57.970Z,41.53
2018-03-23T07:27:24.261Z,51.23
2018-03-23T07:29:50.540Z,49.33
2018-03-23T07:32:16.797Z,41.30
2018-03-23T07:34:43.043Z,45.27
2018-03-23T07:37:09.276Z,44.33
2018-03-23T07:39:35.582Z,42.23
2018-03-23T07:42:01.840Z,46.30
2018-03-23T07:44:28.068Z,50.37
2018-03-23T07:46:54.319Z,45.73
2018-03-23T07:49:20.581Z,42.57
2018-03-23T07:51:46.834Z,39.20
2018-03-23T07:54:13.161Z,43.83
2018-03-23T07:56:39.393Z,40.73
2018-03-23T07:59:05.634Z,46.07
2018-03-23T08:01:31.945Z,43.90
2018-03-23T08:03:58.197Z,42.97
2018-03-23T08:06:24.433Z,43.20
2018-03-23T08:08:50.695Z,38.17
2018-03-23T08:11:16.939Z,64.83
2018-03-23T08:13:43.204Z,61.33
2018-03-23T08:16:09.617Z,38.60
2018-03-23T08:18:35.870Z,46.17
2018-03-23T08:21:02.083Z,42.80
2018-03-23T08:23:28.353Z,47.27
2018-03-23T08:25:54.596Z,45.00
2018-03-23T08:28:20.899Z,44.47
2018-03-23T08:30:47.180Z,42.03
2018-03-23T08:33:13.403Z,46.93
2018-03-23T08:35:39.639Z,51.00
2018-03-23T08:38:05.939Z,52.23
2018-03-23T08:40:32.172Z,49.93
2018-03-23T08:42:58.400Z,54.07
2018-03-23T08:45:24.659Z,48.97
2018-03-23T08:47:50.897Z,44.17
2018-03-23T08:50:17.148Z,44.80
2018-03-23T08:52:43.416Z,45.03
2018-03-23T08:55:09.706Z,39.30
2018-03-23T08:57:35.941Z,61.80
2018-03-23T09:00:02.252Z,43.97
2018-03-23T09:02:28.492Z,41.87
2018-03-23T09:04:54.811Z,45.70
2018-03-23T09:07:21.073Z,56.97
2018-03-23T09:09:47.336Z,39.93
2018-03-23T09:12:13.596Z,47.20
2018-03-23T09:14:39.863Z,49.17
2018-03-23T09:17:06.111Z,46.33
2018-03-23T09:19:32.369Z,46.07
2018-03-23T09:21:58.632Z,44.13
2018-03-23T09:24:24.876Z,49.97
2018-03-23T09:26:51.165Z,53.30
2018-03-23T09:29:17.428Z,65.43
2018-03-23T09:31:43.648Z,44.77
2018-03-23T09:34:09.875Z,46.10
2018-03-23T09:36:36.139Z,44.77
2018-03-23T09:39:02.452Z,42.30
2018-03-23T09:41:28.681Z,45.20
2018-03-23T09:43:54.948Z,40.93
2018-03-23T09:46:22.209Z,44.87
2018-03-23T09:48:48.549Z,47.90
2018-03-23T09:51:14.824Z,43.37
2018-03-23T09:53:41.064Z,45.50
2018-03-23T09:56:07.292Z,39.97
2018-03-23T09:58:33.596Z,44.97
2018-03-23T10:00:59.836Z,44.40
2018-03-23T10:03:26.110Z,37.27
2018-03-23T10:05:52.368Z,41.53
2018-03-23T10:08:18.633Z,48.97
2018-03-23T10:10:44.900Z,48.53
2018-03-23T10:13:11.228Z,49.80
2018-03-23T10:15:37.455Z,51.47
2018-03-23T10:18:03.753Z,48.43
2018-03-23T10:20:30.108Z,45.33
2018-03-23T10:23:15.912Z,43.30
2018-03-23T10:25:42.144Z,44.43
2018-03-23T10:28:08.787Z,37.60
2018-03-23T10:30:35.147Z,38.73
2018-03-23T10:33:01.368Z,40.33
2018-03-23T10:35:27.705Z,39.97
2018-03-23T10:37:54.261Z,38.07
2018-03-23T10:40:20.491Z,40.43
2018-03-23T10:42:46.840Z,35.33
2018-03-23T10:45:13.123Z,44.63
2018-03-23T10:47:39.611Z,40.13
2018-03-23T10:50:05.918Z,36.07
2018-03-23T10:52:32.248Z,34.77
2018-03-23T10:54:58.464Z,38.20
2018-03-23T10:57:24.886Z,33.80
2018-03-23T10:59:51.523Z,40.93
2018-03-23T11:05:17.347Z,33.47
2018-03-23T11:07:43.743Z,30.97
2018-03-23T11:10:09.987Z,27.87
2018-03-23T11:12:36.483Z,27.37
2018-03-23T11:15:02.843Z,21.90
2018-03-23T11:17:29.136Z,19.57
2018-03-23T11:19:55.380Z,23.67
2018-03-23T11:22:21.621Z,17.67
2018-03-23T11:24:47.854Z,21.80
2018-03-23T11:27:14.204Z,20.63
2018-03-23T11:29:40.431Z,18.13
2018-03-23T11:32:06.743Z,19.40
2018-03-23T11:34:33.004Z,75.40
2018-03-23T11:36:59.447Z,62.57
2018-03-23T11:39:25.674Z,22.57
2018-03-23T11:41:52.041Z,22.83
2018-03-23T11:44:18.273Z,16.03
2018-03-23T11:46:44.565Z,18.30
2018-03-23T11:49:11.105Z,16.77
2018-03-23T11:51:37.459Z,17.50
2018-03-23T11:54:03.709Z,16.87
2018-03-23T11:56:30.021Z,18.27
2018-03-23T11:58:56.305Z,16.93
2018-03-23T12:01:22.561Z,21.30
2018-03-23T12:03:49.033Z,18.60
2018-03-23T12:06:15.367Z,16.47
2018-03-23T12:08:41.661Z,15.00
2018-03-23T12:11:07.924Z,39.53
2018-03-23T12:13:34.164Z,19.57
2018-03-23T12:16:00.407Z,13.60
2018-03-23T12:18:26.658Z,10.97
2018-03-23T12:20:52.956Z,9.27
2018-03-23T12:23:19.179Z,9.17
2018-03-23T12:25:45.471Z,7.17
2018-03-23T12:28:11.849Z,6.17
2018-03-23T12:30:38.107Z,7.07
2018-03-23T12:33:04.741Z,7.17
2018-03-23T12:35:31.051Z,6.93
2018-03-23T12:37:57.306Z,10.30
2018-03-23T12:40:23.587Z,7.67
2018-03-23T12:42:49.888Z,20.13
2018-03-23T12:45:16.172Z,12.33
2018-03-23T12:47:42.518Z,8.57
2018-03-23T12:50:08.843Z,9.87
2018-03-23T12:52:35.143Z,8.07
2018-03-23T12:55:01.443Z,7.97
2018-03-23T12:57:28.732Z,8.13
2018-03-23T12:59:55.107Z,8.80
2018-03-23T13:02:21.578Z,8.30
2018-03-23T13:04:47.856Z,11.77
2018-03-23T13:07:14.274Z,10.77
2018-03-23T13:09:40.549Z,10.10
2018-03-23T13:12:06.803Z,10.27
2018-03-23T13:14:33.100Z,8.87
2018-03-23T13:16:59.348Z,9.03
2018-03-23T13:19:25.584Z,9.97
2018-03-23T13:21:51.914Z,8.73
2018-03-23T13:24:18.188Z,11.13
2018-03-23T13:26:44.485Z,8.47
2018-03-23T13:29:10.753Z,11.47
2018-03-23T13:31:37.031Z,10.03
2018-03-23T13:34:03.301Z,9.97
2018-03-23T13:36:29.612Z,12.87
2018-03-23T13:38:55.968Z,9.93
2018-03-23T13:41:22.300Z,10.50
2018-03-23T13:43:48.537Z,10.10
2018-03-23T13:46:15.034Z,11.67
2018-03-23T13:48:41.280Z,10.00
2018-03-23T13:51:07.767Z,11.43
2018-03-23T13:53:34.243Z,10.23
2018-03-23T13:56:00.761Z,10.03
2018-03-23T13:58:32.922Z,11.23
2018-03-23T14:01:01.591Z,10.60
2018-03-23T14:03:27.966Z,10.87
2018-03-23T14:05:54.705Z,10.97
2018-03-23T14:08:21.213Z,10.13
2018-03-23T14:10:47.476Z,11.83
2018-03-23T14:13:13.844Z,9.37
2018-03-23T14:15:40.476Z,11.67
2018-03-23T14:18:07.157Z,11.20
2018-03-23T14:20:33.696Z,10.87
2018-03-23T14:23:01.048Z,10.67
2018-03-23T14:25:27.394Z,11.33
2018-03-23T14:27:53.687Z,11.10
2018-03-23T14:30:20.231Z,10.77
2018-03-23T14:32:46.508Z,9.43
2018-03-23T14:35:12.888Z,12.57
2018-03-23T14:37:39.154Z,10.23
2018-03-23T14:40:05.490Z,11.20
2018-03-23T14:42:31.756Z,10.73
2018-03-23T14:44:58.080Z,10.23
2018-03-23T14:47:24.485Z,11.17
2018-03-23T14:49:50.904Z,10.90
2018-03-23T14:52:17.182Z,10.10
2018-03-23T14:54:43.685Z,10.60
2018-03-23T14:57:09.995Z,10.47
2018-03-23T14:59:36.365Z,10.77
2018-03-23T15:02:02.671Z,13.53
2018-03-23T15:04:29.049Z,10.63
2018-03-23T15:06:55.418Z,16.03
2018-03-23T15:09:21.752Z,12.83
2018-03-23T15:11:47.984Z,13.23
2018-03-23T15:14:18.141Z,13.47
2018-03-23T15:16:44.533Z,10.37
2018-03-23T15:19:10.867Z,10.17
2018-03-23T15:21:37.168Z,10.93
2018-03-23T15:24:03.648Z,10.57
2018-03-23T15:26:31.029Z,11.37
2018-03-23T15:28:57.368Z,13.27
2018-03-23T15:31:23.787Z,9.47
2018-03-23T15:33:50.101Z,10.07
2018-03-23T15:36:16.640Z,11.77
2018-03-23T15:38:43.112Z,12.17
2018-03-23T15:41:09.380Z,11.93
2018-03-23T15:43:35.822Z,9.80
2018-03-23T15:46:02.148Z,10.30
2018-03-23T15:48:28.405Z,10.97
2018-03-23T15:50:54.680Z,9.67
2018-03-23T15:53:21.280Z,11.87
2018-03-23T15:55:47.784Z,13.57
2018-03-23T15:58:14.559Z,14.67
2018-03-23T16:00:40.976Z,12.30
2018-03-23T16:03:07.307Z,14.20
2018-03-23T16:05:33.866Z,12.80
2018-03-23T16:08:00.179Z,10.83
2018-03-23T16:10:26.745Z,13.63
2018-03-23T16:12:53.035Z,13.07
2018-03-23T16:15:19.288Z,14.20
2018-03-23T16:17:46.009Z,13.70
2018-03-23T16:20:12.490Z,13.37
2018-03-23T16:22:38.797Z,15.33
2018-03-23T16:25:05.209Z,12.43
2018-03-23T16:27:31.569Z,13.83
2018-03-23T16:29:58.108Z,15.73
2018-03-23T16:32:24.621Z,14.23
2018-03-23T16:34:51.162Z,16.27
2018-03-23T16:37:17.615Z,16.37
2018-03-23T16:39:43.869Z,23.23
2018-03-23T16:42:10.263Z,20.87
2018-03-23T16:44:36.497Z,13.93
2018-03-23T16:47:03.304Z,17.40
2018-03-23T16:49:30.762Z,14.07
2018-03-23T16:51:57.060Z,13.37
2018-03-23T16:54:23.330Z,16.13
2018-03-23T16:56:49.668Z,16.83
2018-03-23T16:59:15.901Z,18.77
2018-03-23T17:01:42.148Z,17.43
2018-03-23T17:04:08.427Z,16.40
2018-03-23T17:06:34.672Z,19.17
2018-03-23T17:09:00.914Z,16.43
2018-03-23T17:11:27.208Z,16.47
2018-03-23T17:13:53.796Z,31.13
2018-03-23T17:16:20.139Z,29.27
2018-03-23T17:18:46.417Z,17.80
2018-03-23T17:21:12.722Z,15.60
2018-03-23T17:23:38.981Z,17.13
2018-03-23T17:26:05.253Z,16.97
2018-03-23T17:28:31.489Z,19.77
2018-03-23T17:30:57.773Z,17.20
2018-03-23T17:33:24.229Z,19.83
2018-03-23T17:35:50.489Z,24.03
2018-03-23T17:38:16.772Z,19.37
2018-03-23T17:40:43.046Z,16.10
2018-03-23T17:43:09.288Z,19.23
2018-03-23T17:45:35.583Z,15.33
2018-03-23T17:48:01.844Z,19.13
2018-03-23T17:50:28.088Z,19.80
2018-03-23T17:52:54.520Z,16.27
2018-03-23T17:55:21.546Z,15.53
2018-03-23T17:57:47.817Z,19.87
2018-03-23T18:00:14.049Z,17.20
2018-03-23T18:02:40.476Z,16.13
2018-03-23T18:05:06.774Z,18.77
2018-03-23T18:07:33.097Z,19.47
2018-03-23T18:09:59.601Z,18.47
2018-03-23T18:12:25.905Z,17.03
2018-03-23T18:14:52.137Z,19.73
2018-03-23T18:17:18.468Z,18.03
2018-03-23T18:19:44.749Z,16.80
2018-03-23T18:22:11.033Z,17.50
2018-03-23T18:24:37.356Z,14.97
2018-03-23T18:27:03.629Z,17.20
2018-03-23T18:29:30.344Z,15.87
2018-03-23T18:31:56.661Z,20.70
2018-03-23T18:34:22.929Z,52.77
2018-03-23T18:36:49.170Z,36.77
2018-03-23T18:39:15.436Z,20.17
2018-03-23T18:41:41.707Z,16.60
2018-03-23T18:44:07.945Z,21.20
2018-03-23T18:46:35.007Z,17.53
2018-03-23T18:49:01.296Z,20.47
2018-03-23T18:51:27.561Z,22.33
2018-03-23T18:53:53.897Z,19.23
2018-03-23T18:56:20.821Z,19.37
2018-03-23T18:58:47.146Z,21.13
2018-03-23T19:01:13.420Z,24.67
2018-03-23T19:03:39.718Z,21.90
2018-03-23T19:06:05.970Z,19.90
2018-03-23T19:08:32.294Z,21.37
2018-03-23T19:10:58.598Z,22.77
2018-03-23T19:13:24.857Z,23.90
2018-03-23T19:15:51.129Z,22.57
2018-03-23T19:18:17.477Z,24.17
2018-03-23T19:20:43.759Z,22.97
2018-03-23T19:23:10.041Z,20.90
2018-03-23T19:25:36.302Z,21.20
2018-03-23T19:28:02.597Z,23.23
2018-03-23T19:30:28.879Z,22.30
2018-03-23T19:32:55.224Z,22.30
2018-03-23T19:35:21.455Z,20.17
2018-03-23T19:37:47.757Z,21.33
2018-03-23T19:40:14.041Z,21.70
2018-03-23T19:42:40.300Z,19.30
2018-03-23T19:45:06.976Z,23.13
2018-03-23T19:47:33.265Z,22.37
2018-03-23T19:49:59.537Z,21.97
2018-03-23T19:52:25.808Z,19.23
2018-03-23T19:54:52.054Z,23.63
2018-03-23T19:57:18.353Z,23.17
2018-03-23T19:59:44.664Z,19.03
2018-03-23T20:02:10.976Z,19.23
2018-03-23T20:04:37.715Z,22.60
2018-03-23T20:07:04.223Z,23.53
2018-03-23T20:09:30.506Z,24.47
2018-03-23T20:11:56.779Z,22.90
2018-03-23T20:14:23.158Z,26.00
2018-03-23T20:16:49.392Z,27.00
2018-03-23T20:19:15.645Z,23.90
2018-03-23T20:21:41.958Z,25.20
2018-03-23T20:24:14.134Z,25.80
2018-03-23T20:26:40.599Z,25.03
2018-03-23T20:29:06.885Z,23.07
2018-03-23T20:31:39.030Z,25.27
2018-03-23T20:34:05.271Z,25.90
2018-03-23T20:36:31.571Z,20.97
2018-03-23T20:38:57.812Z,25.17
2018-03-23T20:41:24.108Z,25.80
2018-03-23T20:43:50.374Z,24.30
2018-03-23T20:46:16.664Z,22.47
2018-03-23T20:48:42.983Z,23.90
2018-03-23T20:51:09.292Z,23.83
2018-03-23T20:53:35.599Z,25.57
2018-03-23T20:56:01.858Z,23.47
2018-03-23T20:58:28.168Z,24.00
2018-03-23T21:00:54.476Z,25.60
2018-03-23T21:03:21.027Z,24.33
2018-03-23T21:05:47.340Z,26.80
2018-03-23T21:08:13.592Z,23.27
2018-03-23T21:10:39.845Z,26.77
2018-03-23T21:13:06.175Z,26.87
2018-03-23T21:15:32.413Z,27.10
2018-03-23T21:17:58.652Z,22.27
2018-03-23T21:20:24.925Z,25.53
2018-03-23T21:22:51.169Z,26.93
2018-03-23T21:25:17.457Z,22.10
2018-03-23T21:27:43.774Z,25.00
2018-03-23T21:30:10.261Z,23.30
2018-03-23T21:32:36.556Z,25.00
2018-03-23T21:35:02.855Z,23.87
2018-03-23T21:37:29.154Z,22.73
2018-03-23T21:39:55.421Z,22.47
2018-03-23T21:42:21.733Z,22.77
2018-03-23T21:44:47.964Z,23.37
2018-03-23T21:47:14.301Z,23.30
2018-03-23T21:49:40.581Z,23.47
2018-03-23T21:52:06.835Z,21.87
2018-03-23T21:54:33.066Z,26.00
2018-03-23T21:56:59.358Z,25.33
2018-03-23T21:59:25.628Z,27.00
2018-03-23T22:01:51.895Z,25.97
2018-03-23T22:04:18.177Z,23.90
2018-03-23T22:06:44.442Z,27.50
2018-03-23T22:09:10.685Z,25.90
2018-03-23T22:11:36.945Z,25.20
2018-03-23T22:14:03.197Z,21.93
2018-03-23T22:16:29.433Z,24.27
2018-03-23T22:18:55.701Z,23.27
2018-03-23T22:21:21.949Z,20.53
2018-03-23T22:23:48.206Z,23.07
2018-03-23T22:26:14.556Z,23.40
2018-03-23T22:28:40.838Z,21.50
2018-03-23T22:31:07.109Z,22.77
2018-03-23T22:33:33.385Z,24.10
2018-03-23T22:35:59.639Z,22.53
2018-03-23T22:38:25.877Z,18.03
2018-03-23T22:40:52.149Z,21.70
2018-03-23T22:43:18.433Z,20.47
2018-03-23T22:45:44.749Z,18.60
2018-03-23T22:48:11.041Z,23.67
2018-03-23T22:50:37.275Z,19.43
2018-03-23T22:53:03.549Z,22.93
2018-03-23T22:55:29.853Z,21.17
2018-03-23T22:57:56.189Z,23.37
2018-03-23T23:00:22.439Z,22.73
2018-03-23T23:02:48.757Z,19.60
2018-03-23T23:05:15.104Z,29.30
2018-03-23T23:07:41.391Z,21.97
2018-03-23T23:10:07.749Z,19.20
2018-03-23T23:12:33.993Z,20.90
2018-03-23T23:15:00.228Z,20.50
2018-03-23T23:17:26.571Z,22.27
2018-03-23T23:19:52.853Z,23.23
2018-03-23T23:22:19.093Z,18.13
2018-03-23T23:24:45.369Z,24.47
2018-03-23T23:27:11.904Z,21.57
2018-03-23T23:29:38.150Z,21.37
2018-03-23T23:32:04.864Z,20.30
2018-03-23T23:34:31.157Z,23.27
2018-03-23T23:36:57.388Z,20.53
2018-03-23T23:39:23.656Z,19.00
2018-03-23T23:41:49.923Z,23.60
2018-03-23T23:44:16.202Z,24.07
2018-03-23T23:46:42.476Z,20.27
2018-03-23T23:49:08.881Z,25.10
2018-03-23T23:51:35.117Z,19.17
2018-03-23T23:54:01.465Z,23.00
2018-03-23T23:56:28.516Z,20.93
2018-03-23T23:58:54.786Z,21.37
